Latest Weather Observations for Meekatharra

IDW60801

Issued at 6:05 pm WST Monday 28 July 2014 (issued every 30 minutes, with the page automatically refreshed every 10 minutes)

About weather observations | Map of weather stations | Latest weather observations for WA | Other Formats
Station Details ID: 007045 Name: MEEKATHARRA AIRPORT Lat: -26.61 Lon: 118.54 Height: 517.0 m
Data from the previous 72 hours. | See also: Recent months at Meekatharra
Date/Time
WST
Temp
°C
App
Temp
°C
Dew
Point
Rel
Hum
%
Delta-T
°C
Wind Press
QNH
hPa
Press
MSL
hPa
Rain
since 9 am
mm
Dir
 
Spd
km/h
Gust
km/h
Spd
kts
Gust
kts
28/06:00pm 19.1 15.2 3.6 35 7.5 SSW 13 17 7 9 1022.8 1022.4 0.0
28/05:30pm 20.1 15.9 3.7 34 8.0 SSW 15 19 8 10 1022.6 - 0.0
28/05:00pm 20.7 16.9 3.8 33 8.3 S 13 19 7 10 1022.1 - 0.0
28/04:30pm 21.2 17.4 4.0 32 8.5 SSW 13 20 7 11 1022.1 - 0.0
28/04:00pm 21.6 18.7 4.4 32 8.6 S 9 20 5 11 1021.9 - 0.0
28/03:30pm 21.5 17.8 4.2 32 8.6 S 13 17 7 9 1021.9 - 0.0
28/03:00pm 21.2 18.5 5.4 35 8.0 S 9 20 5 11 1022.0 1021.6 0.0
28/02:30pm 20.9 18.1 5.0 35 8.0 SSE 9 15 5 8 1022.1 - 0.0
28/02:00pm 21.2 19.1 5.7 36 7.9 SSE 6 9 3 5 1022.5 - 0.0
28/01:30pm 20.8 18.4 5.4 36 7.8 SSE 7 11 4 6 1022.8 - 0.0
28/01:00pm 20.7 17.3 5.8 37 7.6 SE 13 19 7 10 1023.3 - 0.0
28/12:30pm 20.0 17.3 5.8 39 7.2 E 9 17 5 9 1023.8 - 0.0
28/12:00pm 19.0 15.8 5.1 40 6.9 E 11 15 6 8 1024.3 1023.9 0.0
28/11:30am 18.8 16.0 5.1 40 6.8 ESE 9 15 5 8 1024.9 - 0.0
28/11:00am 18.1 14.4 4.6 41 6.6 E 13 20 7 11 1025.3 - 0.0
28/10:30am 18.1 13.8 3.1 36 7.1 E 15 20 8 11 1025.5 - 0.0
28/10:00am 16.7 12.1 3.6 41 6.2 SE 17 24 9 13 1025.9 - 0.0
28/09:30am 15.3 9.7 3.5 45 5.5 E 22 30 12 16 1025.9 - 0.0
28/09:00am 14.6 9.6 4.5 50 4.8 SE 20 32 11 17 1025.8 1025.4 0.0
28/08:30am 13.4 8.0 4.5 55 4.2 SE 22 28 12 15 1025.7 - 0.0
28/08:00am 12.1 8.2 5.4 63 3.2 S 15 24 8 13 1025.3 - 0.0
28/07:30am 10.1 6.8 6.3 77 1.8 WSW 13 17 7 9 1024.9 - 0.0
28/07:00am 8.7 6.5 6.4 85 1.1 WSW 7 11 4 6 1024.7 - 0.0
28/06:30am 8.1 5.6 6.4 89 0.8 WSW 9 11 5 6 1024.4 - 0.0
28/06:00am 8.0 5.5 6.5 90 0.7 WSW 9 11 5 6 1024.1 1023.7 0.0
28/05:30am 8.5 6.3 6.4 87 1.0 WSW 7 9 4 5 1023.8 - 0.0
28/05:00am 8.7 6.5 6.4 85 1.1 WSW 7 9 4 5 1023.2 - 0.0
28/04:30am 9.1 5.8 6.4 83 1.3 WSW 13 15 7 8 1023.1 - 0.0
28/04:00am 9.4 6.5 6.5 82 1.4 WSW 11 13 6 7 1023.1 - 0.0
28/03:30am 9.6 6.7 6.7 82 1.4 WSW 11 15 6 8 1023.0 - 0.0
28/03:00am 10.1 7.7 7.2 82 1.4 WSW 9 9 5 5 1023.1 1022.7 0.0
28/02:30am 11.1 8.4 7.5 78 1.8 WSW 11 11 6 6 1023.0 - 0.0
28/02:00am 11.1 9.2 7.5 78 1.8 WSW 7 9 4 5 1023.2 - 0.0
28/01:30am 11.6 9.3 7.6 76 2.0 WSW 9 13 5 7 1023.4 - 0.0
28/01:00am 11.3 8.9 7.2 76 2.0 WSW 9 9 5 5 1023.7 - 0.0
28/12:30am 12.4 10.2 7.8 73 2.3 WSW 9 11 5 6 1023.7 - 0.0
28/12:00am 12.3 10.3 7.3 71 2.5 WSW 7 9 4 5 1023.8 1023.4 0.0
 
Date/Time
WST
Temp
°C
App
Temp
°C
Dew
Point
Rel
Hum
%
Delta-T
°C
Wind Press
QNH
hPa
Press
MSL
hPa
Rain
since 9 am
mm
Dir
 
Spd
km/h
Gust
km/h
Spd
kts
Gust
kts
27/11:30pm 13.4 11.0 6.9 65 3.2 WSW 9 13 5 7 1023.8 - 0.0
27/11:00pm 13.9 10.7 5.1 55 4.2 WSW 11 17 6 9 1023.9 - 0.0
27/10:30pm 13.5 11.3 5.4 58 3.9 WSW 6 7 3 4 1023.8 - 0.0
27/10:00pm 14.9 12.2 5.4 53 4.6 WSW 9 11 5 6 1023.7 - 0.0
27/09:30pm 15.8 12.5 4.3 46 5.5 W 11 15 6 8 1023.5 - 0.0
27/09:00pm 13.7 12.7 5.4 57 4.0 CALM 0 0 0 0 1023.3 1022.9 0.0
27/08:30pm 13.7 12.3 3.8 51 4.6 CALM 0 0 0 0 1023.3 - 0.0
27/08:00pm 14.9 13.3 2.7 44 5.6 CALM 0 0 0 0 1023.2 - 0.0
27/07:30pm 15.1 14.0 4.9 50 4.9 CALM 0 0 0 0 1023.0 - 0.0
27/07:00pm 15.8 13.4 4.3 46 5.5 W 6 6 3 3 1022.7 - 0.0
27/06:30pm 17.5 15.1 5.4 45 6.0 W 7 9 4 5 1022.4 - 0.0
27/06:00pm 19.0 16.4 4.0 37 7.3 W 7 9 4 5 1022.0 1021.6 0.0
27/05:30pm 20.2 17.1 3.5 33 8.1 W 9 15 5 8 1021.7 - 0.0
27/05:00pm 21.2 18.5 3.7 31 8.6 W 7 13 4 7 1021.4 - 0.0
27/04:30pm 21.2 17.5 2.4 29 9.0 W 11 15 6 8 1021.4 - 0.0
27/04:00pm 21.9 18.8 3.7 30 9.0 WNW 9 19 5 10 1021.4 - 0.0
27/03:30pm 21.1 17.9 3.2 30 8.7 W 9 15 5 8 1021.3 - 0.0
27/03:00pm 21.5 18.5 3.9 31 8.7 WSW 9 15 5 8 1021.3 1020.9 0.0
27/02:30pm 20.9 17.8 3.8 32 8.4 WNW 9 19 5 10 1021.3 - 0.0
27/02:00pm 21.0 17.7 4.6 34 8.2 NW 11 20 6 11 1021.5 - 0.0
27/01:30pm 21.3 17.6 4.2 32 8.5 W 13 19 7 10 1021.8 - 0.0
27/01:00pm 20.0 16.7 4.4 35 7.7 SW 11 19 6 10 1022.1 - 0.0
27/12:30pm 20.7 18.5 5.5 37 7.7 SW 6 11 3 6 1022.6 - 0.0
27/12:00pm 19.1 16.3 5.3 40 6.9 W 9 17 5 9 1023.5 1023.1 0.0
27/11:30am 18.8 16.2 5.9 43 6.5 SSW 9 15 5 8 1024.0 - 0.0
27/11:00am 18.7 16.4 7.3 47 5.9 SW 9 22 5 12 1024.7 - 0.0
27/10:30am 18.1 15.1 7.9 51 5.3 SW 13 19 7 10 1025.0 - 0.0
27/10:00am 17.6 15.1 8.2 54 4.9 WNW 11 19 6 10 1025.2 - 0.0
27/09:30am 16.6 14.5 8.3 58 4.3 NW 9 15 5 8 1025.2 - 0.0
27/09:00am 15.7 13.3 8.6 62 3.7 NW 11 17 6 9 1025.0 1024.6 0.0
27/08:30am 14.6 12.4 7.9 64 3.4 NW 9 15 5 8 1024.7 - 0.0
27/08:00am 12.3 9.2 3.8 56 3.9 NW 9 11 5 6 1024.3 - 0.0
27/07:30am 10.4 7.0 1.9 55 3.7 NW 9 11 5 6 1023.8 - 0.0
27/07:00am 9.3 5.4 1.0 56 3.5 NW 11 13 6 7 1023.5 - 0.0
27/06:30am 8.4 4.8 0.9 59 3.1 NW 9 11 5 6 1023.3 - 0.0
27/06:00am 9.4 5.4 0.8 55 3.6 NW 11 11 6 6 1023.1 1022.7 0.0
27/05:30am 10.7 6.7 0.8 50 4.2 NW 11 15 6 8 1022.8 - 0.0
27/05:00am 9.9 5.8 0.0 50 4.1 NW 11 13 6 7 1022.8 - 0.0
27/04:30am 10.0 5.9 0.1 50 4.1 NW 11 11 6 6 1022.5 - 0.0
27/04:00am 9.1 5.4 0.1 53 3.7 NW 9 11 5 6 1022.4 - 0.0
27/03:30am 9.6 5.5 -0.1 51 4.0 NW 11 13 6 7 1022.4 - 0.0
27/03:00am 10.5 6.5 0.2 49 4.3 NW 11 13 6 7 1022.1 1021.7 0.0
27/02:30am 11.2 7.0 -0.7 43 4.9 NW 11 11 6 6 1022.1 - 0.0
27/02:00am 10.1 6.2 -1.7 43 4.7 NW 9 11 5 6 1022.1 - 0.0
27/01:30am 8.7 5.2 -1.4 49 4.0 NW 7 9 4 5 1022.3 - 0.0
27/01:00am 10.9 6.7 -1.2 43 4.9 NW 11 13 6 7 1022.4 - 0.0
27/12:30am 10.7 6.4 -1.5 42 4.9 NW 11 13 6 7 1022.4 - 0.0
27/12:00am 10.6 6.8 -0.6 46 4.6 NW 9 11 5 6 1022.4 1021.9 0.0
 
Date/Time
WST
Temp
°C
App
Temp
°C
Dew
Point
Rel
Hum
%
Delta-T
°C
Wind Press
QNH
hPa
Press
MSL
hPa
Rain
since 9 am
mm
Dir
 
Spd
km/h
Gust
km/h
Spd
kts
Gust
kts
26/11:30pm 11.1 7.2 -1.5 41 5.1 NW 9 11 5 6 1022.5 - 0.0
26/11:00pm 11.6 7.8 -0.8 42 5.1 NW 9 9 5 5 1022.6 - 0.0
26/10:30pm 11.8 8.0 -1.1 41 5.3 NW 9 11 5 6 1022.7 - 0.0
26/10:00pm 12.5 8.6 -1.7 37 5.8 NW 9 11 5 6 1022.8 - 0.0
26/09:30pm 12.7 8.8 -1.4 37 5.8 NW 9 11 5 6 1022.8 - 0.0
26/09:00pm 13.1 9.0 -2.9 33 6.4 NW 9 11 5 6 1022.7 1022.3 0.0
26/08:30pm 13.6 9.5 -3.2 31 6.7 NW 9 11 5 6 1022.7 - 0.0
26/08:00pm 14.0 9.9 -2.8 31 6.8 NW 9 11 5 6 1022.6 - 0.0
26/07:30pm 14.2 10.2 -2.5 31 6.8 NNW 9 11 5 6 1022.5 - 0.0
26/07:00pm 14.7 10.7 -1.9 32 6.9 NNW 9 11 5 6 1022.5 - 0.0
26/06:30pm 16.6 12.4 -3.9 24 8.3 NNW 9 11 5 6 1022.0 - 0.0
26/06:00pm 18.0 13.8 -4.3 21 9.1 NNW 9 11 5 6 1021.6 1021.2 0.0
26/05:30pm 19.5 14.3 -6.5 16 10.3 NW 13 19 7 10 1021.2 - 0.0
26/05:00pm 20.7 14.6 -8.2 13 11.2 NW 17 26 9 14 1021.2 - 0.0
26/04:30pm 21.3 15.3 -7.0 14 11.3 WNW 17 24 9 13 1021.2 - 0.0
26/04:00pm 21.2 14.7 -6.2 15 11.1 WNW 20 26 11 14 1021.2 - 0.0
26/03:30pm 21.7 16.2 -5.4 16 11.2 WNW 15 26 8 14 1021.2 - 0.0
26/03:00pm 22.4 16.5 -6.1 14 11.7 NW 17 22 9 12 1021.2 1020.8 0.0
26/02:30pm 21.9 15.5 -5.4 15 11.3 NW 20 33 11 18 1021.2 - 0.0
26/02:00pm 21.7 14.9 -5.4 16 11.2 NW 22 33 12 18 1021.4 - 0.0
26/01:30pm 21.2 14.4 -5.2 16 10.9 NW 22 32 12 17 1021.6 - 0.0
26/01:00pm 21.2 15.0 -4.7 17 10.8 WNW 19 24 10 13 1021.9 - 0.0
26/12:30pm 20.9 13.7 -5.5 16 10.8 NW 24 39 13 21 1022.5 - 0.0
26/12:00pm 20.6 13.8 -4.8 17 10.5 NNW 22 32 12 17 1022.9 1022.5 0.0
26/11:30am 20.0 13.0 -3.9 19 10.0 NNW 24 32 13 17 1023.4 - 0.0
26/11:00am 19.1 11.8 -2.8 22 9.3 N 26 35 14 19 1023.7 - 0.0
26/10:30am 18.3 11.1 -2.0 25 8.7 N 26 35 14 19 1024.3 - 0.0
26/10:00am 17.0 10.2 -1.9 27 8.0 N 24 32 13 17 1024.4 - 0.0
26/09:30am 16.3 10.0 -1.3 30 7.5 N 22 28 12 15 1024.1 - 0.0
26/09:00am 14.2 8.5 -1.0 35 6.4 N 19 26 10 14 1023.6 1023.2 0.0
26/08:30am 12.4 6.1 -0.8 40 5.5 N 22 28 12 15 1023.2 - 0.0
26/08:00am 9.6 4.3 -0.8 48 4.2 NNE 17 24 9 13 1022.9 - 0.0
26/07:30am 7.9 3.4 -0.6 55 3.4 NNE 13 20 7 11 1022.7 - 0.0
26/07:00am 6.5 2.0 -0.6 60 2.8 NNE 13 15 7 8 1022.6 - 0.0
26/06:30am 6.6 2.0 -0.8 59 2.9 NNE 13 17 7 9 1022.1 - 0.0
26/06:00am 7.2 2.6 -0.9 56 3.2 NNE 13 17 7 9 1021.9 1021.5 0.0
26/05:30am 8.0 3.4 -1.1 52 3.6 NNE 13 15 7 8 1021.6 - 0.0
26/05:00am 8.9 3.5 -1.1 49 4.0 NNE 17 20 9 11 1021.3 - 0.0
26/04:30am 8.5 3.4 -1.7 48 4.0 NNE 15 17 8 9 1021.3 - 0.0
26/04:00am 8.5 3.8 -1.7 48 4.0 NNE 13 17 7 9 1021.4 - 0.0
26/03:30am 8.1 3.3 -2.3 48 4.0 NNE 13 15 7 8 1021.3 - 0.0
26/03:00am 8.8 4.0 -2.7 44 4.4 NNE 13 17 7 9 1021.4 1021.0 0.0
26/02:30am 8.9 3.7 -2.9 43 4.5 NNE 15 19 8 10 1021.3 - 0.0
26/02:00am 8.6 3.4 -3.0 44 4.4 N 15 19 8 10 1021.3 - 0.0
26/01:30am 8.9 4.0 -3.2 42 4.6 N 13 15 7 8 1021.6 - 0.0
26/01:00am 9.4 4.6 -2.8 42 4.7 N 13 15 7 8 1021.7 - 0.0
26/12:30am 9.4 5.0 -2.5 43 4.6 N 11 13 6 7 1021.7 - 0.0
26/12:00am 10.0 5.6 -2.6 41 4.9 N 11 13 6 7 1022.0 1021.6 0.0
 
Date/Time
WST
Temp
°C
App
Temp
°C
Dew
Point
Rel
Hum
%
Delta-T
°C
Wind Press
QNH
hPa
Press
MSL
hPa
Rain
since 9 am
mm
Dir
 
Spd
km/h
Gust
km/h
Spd
kts
Gust
kts
25/11:30pm 10.4 5.9 -3.0 39 5.2 N 11 13 6 7 1022.1 - 0.0
25/11:00pm 10.2 5.8 -2.6 40 5.0 WNW 11 13 6 7 1022.3 - 0.0
25/10:30pm 11.1 7.1 -2.6 38 5.4 WNW 9 11 5 6 1022.6 - 0.0
25/10:00pm 11.7 7.2 -3.1 35 5.8 N 11 11 6 6 1022.7 - 0.0
25/09:30pm 12.5 8.3 -3.6 32 6.3 N 9 9 5 5 1022.9 - 0.0
25/09:00pm 11.3 7.1 -3.8 34 5.8 N 9 11 5 6 1022.7 1022.3 0.0
25/08:30pm 12.4 8.6 -0.5 41 5.4 N 9 9 5 5 1022.6 - 0.0
25/08:00pm 13.2 9.5 -2.7 33 6.4 N 7 9 4 5 1022.5 - 0.0
25/07:30pm 13.8 10.3 -1.7 34 6.4 N 7 7 4 4 1022.3 - 0.0
25/07:00pm 15.2 11.5 0.0 35 6.6 N 9 9 5 5 1022.0 - 0.0
25/06:30pm 16.9 12.8 -2.8 26 8.2 N 9 9 5 5 1021.8 - 0.0

Other Formats:

Comma delimited format used in spreadsheet applications
http://www.bom.gov.au/fwo/IDW60801/IDW60801.94430.axf

JavaScript Object Notation format (JSON) in row-major order
http://www.bom.gov.au/fwo/IDW60801/IDW60801.94430.json